Terminal Aerodrome Forecast
Issued by NWS Corpus Christi, TX

Home | Current Version | Previous Version | Text Only | Print | Product List | Glossary On
Versions: 1 2 3 4 5 6 7 8 9 10 11 12 13
000
FTUS44 KCRP 071121
TAFVCT
TAF
KVCT 071121Z 0712/0812 17008KT 6SM BR VCSH BKN025
      TEMPO 0712/0713 5SM BR
     FM071500 17014G18KT P6SM VCSH SCT030 BKN250
      TEMPO 0715/0717 BKN030
     FM072000 16015G25KT P6SM SCT040 BKN250
     FM080300 16010KT P6SM SCT025
     FM080600 17007KT P6SM BKN025
      TEMPO 0810/0812 5SM BR=

USA.gov is the U.S. government's official web portal to all federal, state and local government web resources and services.